Time;durP1;ratioP1;P1;durP2;ratioP2;P2;SDS_P1;SDS_P2;PMS_P1;PMS_P2;Temp;Humidity;BMP_temperature;BMP_pressure;BME280_temperature;BME280_humidity;BME280_pressure;Samples;Min_cycle;Max_cycle;Signal;HPM_P1;HPM_P2
2022/12/21 00:01:20;;;;;;;7.65;5.45;;;9.80;99.90;;;;;;5043734;28;20029;-68
2022/12/21 00:03:50;;;;;;;9.15;5.85;;;9.80;99.90;;;;;;5064620;28;20029;-68
2022/12/21 00:06:15;;;;;;;8.18;4.82;;;9.80;99.90;;;;;;5058102;28;20037;-69
2022/12/21 00:08:45;;;;;;;8.60;5.82;;;9.80;99.90;;;;;;5041223;28;20029;-69
2022/12/21 00:11:12;;;;;;;7.28;5.22;;;9.80;99.90;;;;;;5055029;28;20087;-69
2022/12/21 00:13:39;;;;;;;8.73;5.95;;;9.80;99.90;;;;;;5073784;28;20480;-70
2022/12/21 00:16:08;;;;;;;7.00;5.15;;;9.80;99.90;;;;;;5063976;28;20459;-69
2022/12/21 00:18:35;;;;;;;7.30;4.60;;;9.80;99.90;;;;;;5068822;28;20017;-69
2022/12/21 00:21:07;;;;;;;6.85;4.95;;;9.80;99.90;;;;;;5068378;28;20055;-69
2022/12/21 00:23:34;;;;;;;7.10;5.03;;;9.80;99.90;;;;;;5070642;28;20024;-69
2022/12/21 00:26:02;;;;;;;6.75;4.95;;;9.80;99.90;;;;;;5070393;28;20021;-69
2022/12/21 00:28:28;;;;;;;6.40;4.80;;;9.70;99.90;;;;;;5067976;28;20024;-69
2022/12/21 00:30:53;;;;;;;8.90;4.95;;;9.70;99.90;;;;;;5046055;28;20489;-69
2022/12/21 00:33:20;;;;;;;8.52;4.75;;;9.70;99.90;;;;;;5046680;28;20086;-69
2022/12/21 00:35:50;;;;;;;6.57;4.78;;;9.80;99.90;;;;;;5070914;28;20492;-69
2022/12/21 00:38:17;;;;;;;6.90;4.63;;;9.80;99.90;;;;;;5062492;28;20021;-69
2022/12/21 00:40:43;;;;;;;7.28;5.10;;;9.80;99.90;;;;;;5058775;28;20389;-69
2022/12/21 00:43:10;;;;;;;6.38;4.30;;;9.90;99.90;;;;;;5059893;28;20045;-69
2022/12/21 00:45:36;;;;;;;8.20;4.78;;;9.90;99.90;;;;;;5058125;28;20434;-69
2022/12/21 00:48:02;;;;;;;7.20;4.85;;;9.90;99.90;;;;;;5059418;28;20059;-69
2022/12/21 00:50:27;;;;;;;7.20;4.45;;;9.90;99.90;;;;;;5059842;28;20082;-70
2022/12/21 00:52:54;;;;;;;5.82;3.88;;;9.90;99.90;;;;;;5072909;28;20032;-69
2022/12/21 00:55:19;;;;;;;6.03;4.32;;;9.90;99.90;;;;;;5041622;28;20053;-69
2022/12/21 00:57:45;;;;;;;6.50;3.92;;;9.90;99.90;;;;;;5059573;28;20028;-69
2022/12/21 01:00:11;;;;;;;7.38;4.65;;;9.90;99.90;;;;;;5059810;28;20403;-69
2022/12/21 01:02:37;;;;;;;9.57;5.30;;;9.90;99.90;;;;;;5041432;28;20370;-69
2022/12/21 01:05:03;;;;;;;7.63;4.90;;;9.90;99.90;;;;;;5059734;28;20082;-69
2022/12/21 01:07:29;;;;;;;9.07;4.72;;;9.90;99.90;;;;;;5059202;28;20017;-69
2022/12/21 01:09:54;;;;;;;6.53;4.68;;;9.90;99.90;;;;;;5058646;28;20059;-69
2022/12/21 01:12:20;;;;;;;6.60;4.63;;;9.90;99.90;;;;;;5059312;28;20029;-69
2022/12/21 01:14:46;;;;;;;6.85;4.45;;;10.00;99.90;;;;;;5059436;28;20108;-69
2022/12/21 01:17:11;;;;;;;8.50;4.90;;;10.00;99.90;;;;;;5059178;28;20075;-69
2022/12/21 01:19:37;;;;;;;7.10;4.50;;;9.90;99.90;;;;;;5059573;28;20025;-69
2022/12/21 01:22:03;;;;;;;6.57;4.18;;;10.00;99.90;;;;;;5059172;28;20443;-69
2022/12/21 01:24:28;;;;;;;7.35;4.38;;;10.00;99.90;;;;;;5058903;28;20036;-69
2022/12/21 01:26:54;;;;;;;6.55;4.03;;;9.90;99.90;;;;;;5041034;28;20111;-69
2022/12/21 01:29:20;;;;;;;7.28;4.53;;;10.00;99.90;;;;;;5059387;28;20033;-69
2022/12/21 01:31:46;;;;;;;9.43;5.85;;;9.90;99.90;;;;;;5058828;28;20025;-69
2022/12/21 01:34:12;;;;;;;13.45;9.25;;;10.00;99.90;;;;;;5041107;28;20028;-69
2022/12/21 01:36:37;;;;;;;15.68;9.98;;;10.00;99.90;;;;;;5058689;28;20024;-69
2022/12/21 01:39:03;;;;;;;14.90;10.80;;;10.00;99.90;;;;;;5040647;28;20029;-69
2022/12/21 01:41:29;;;;;;;14.07;10.63;;;9.90;99.90;;;;;;5058834;28;20053;-69
2022/12/21 01:43:57;;;;;;;13.35;9.45;;;9.90;99.90;;;;;;5058866;28;20039;-69
2022/12/21 01:46:23;;;;;;;12.75;9.27;;;9.80;99.90;;;;;;5058506;28;20362;-69
2022/12/21 01:49:10;;;;;;;13.02;8.40;;;9.80;99.90;;;;;;5058742;28;20032;-70
2022/12/21 01:51:37;;;;;;;11.65;6.88;;;9.80;99.90;;;;;;5058331;28;20021;-69
2022/12/21 01:54:12;;;;;;;10.02;5.70;;;9.70;99.90;;;;;;5058294;28;20029;-70
2022/12/21 01:56:40;;;;;;;7.40;4.90;;;9.70;99.90;;;;;;5040594;28;20029;-70
2022/12/21 01:59:16;;;;;;;6.45;4.90;;;9.70;99.90;;;;;;5058421;28;20021;-70
2022/12/21 02:01:42;;;;;;;6.65;4.70;;;9.70;99.90;;;;;;5058399;28;20036;-69
2022/12/21 02:04:09;;;;;;;7.38;4.25;;;9.70;99.90;;;;;;5058343;28;20032;-69
2022/12/21 02:06:47;;;;;;;7.45;3.72;;;9.60;99.90;;;;;;5058322;28;20059;-69
2022/12/21 02:09:14;;;;;;;5.97;3.33;;;9.60;99.90;;;;;;5057999;28;20025;-70
2022/12/21 02:11:40;;;;;;;4.85;2.72;;;9.70;99.90;;;;;;5058025;28;20135;-69
2022/12/21 02:14:13;;;;;;;5.57;3.20;;;9.60;99.90;;;;;;5058089;28;20025;-69
2022/12/21 02:16:48;;;;;;;6.97;3.38;;;9.70;99.90;;;;;;5058302;28;20025;-69
2022/12/21 02:19:34;;;;;;;4.57;2.85;;;9.70;99.90;;;;;;5058193;28;20025;-69
2022/12/21 02:22:05;;;;;;;4.78;2.92;;;9.70;99.90;;;;;;5039404;28;20504;-69
2022/12/21 02:24:50;;;;;;;4.18;2.75;;;9.70;99.90;;;;;;5058369;28;20389;-70
2022/12/21 02:27:45;;;;;;;6.70;2.78;;;9.70;99.90;;;;;;5058109;28;20029;-70
2022/12/21 02:30:20;;;;;;;3.25;2.35;;;9.70;99.90;;;;;;5057828;28;20398;-67
2022/12/21 02:33:02;;;;;;;3.53;2.47;;;9.60;99.90;;;;;;5057816;28;20057;-70
2022/12/21 02:35:27;;;;;;;4.97;2.72;;;9.60;99.90;;;;;;5057984;28;20028;-70
2022/12/21 02:37:55;;;;;;;5.18;2.53;;;9.60;99.90;;;;;;5057906;28;20445;-70
2022/12/21 02:40:36;;;;;;;4.32;2.65;;;9.60;99.90;;;;;;5057822;28;20024;-70
2022/12/21 02:46:02;;;;;;;5.53;2.50;;;9.60;99.90;;;;;;5057819;28;20059;-70
2022/12/21 02:48:47;;;;;;;4.90;2.13;;;9.60;99.90;;;;;;5057667;28;20064;-70
2022/12/21 02:51:19;;;;;;;4.00;2.30;;;9.60;99.90;;;;;;5057408;28;20029;-70
2022/12/21 02:53:45;;;;;;;4.55;2.20;;;9.60;99.90;;;;;;5057402;28;20025;-70
2022/12/21 02:56:19;;;;;;;4.70;2.25;;;9.50;99.90;;;;;;5057371;28;20025;-70
2022/12/21 02:58:45;;;;;;;3.72;2.20;;;9.60;99.90;;;;;;5039549;28;20021;-70
2022/12/21 03:01:13;;;;;;;3.92;2.50;;;9.50;99.90;;;;;;5057260;28;20024;-70
2022/12/21 03:03:57;;;;;;;5.35;2.45;;;9.50;99.90;;;;;;5039276;28;20095;-70
2022/12/21 03:06:56;;;;;;;3.25;1.92;;;9.50;99.90;;;;;;5057451;28;20079;-70
2022/12/21 03:09:47;;;;;;;3.22;1.90;;;9.50;99.90;;;;;;5057062;28;20412;-70
2022/12/21 03:12:31;;;;;;;5.10;2.25;;;9.50;99.90;;;;;;5057300;28;20036;-70
2022/12/21 03:15:06;;;;;;;3.97;2.20;;;9.50;99.90;;;;;;5057241;28;20021;-70
2022/12/21 03:17:41;;;;;;;4.35;2.22;;;9.40;99.90;;;;;;5057055;28;20021;-70
2022/12/21 03:20:22;;;;;;;5.40;1.98;;;9.40;99.90;;;;;;5057298;28;20032;-70
2022/12/21 03:22:58;;;;;;;4.68;2.58;;;9.40;99.90;;;;;;5038876;28;20097;-70
2022/12/21 03:25:32;;;;;;;4.40;2.15;;;9.40;99.90;;;;;;5057122;28;20092;-70
2022/12/21 03:28:00;;;;;;;;;;;9.30;99.90;;;;;;5057662;28;20021;-70
2022/12/21 03:30:29;;;;;;;3.25;1.77;;;9.30;99.90;;;;;;5056995;28;19904;-70
2022/12/21 03:33:02;;;;;;;3.33;1.40;;;9.30;99.90;;;;;;5042060;28;20021;-70
2022/12/21 03:35:27;;;;;;;;;;;9.20;99.90;;;;;;5061339;28;20499;-70
2022/12/21 03:37:56;;;;;;;4.55;1.95;;;9.20;99.90;;;;;;5061159;28;19905;-68
2022/12/21 03:40:25;;;;;;;3.10;1.95;;;9.10;99.90;;;;;;5043100;28;20408;-69
2022/12/21 03:43:42;;;;;;;6.28;2.00;;;9.20;99.90;;;;;;5042904;28;20032;-69
2022/12/21 03:46:15;;;;;;;4.78;1.85;;;9.20;99.90;;;;;;5027460;28;20079;-67
2022/12/21 03:48:49;;;;;;;3.38;1.63;;;9.30;99.90;;;;;;5043032;28;20021;-69
2022/12/21 03:51:25;;;;;;;5.55;2.00;;;9.30;99.90;;;;;;5042873;28;20039;-69
2022/12/21 03:53:57;;;;;;;3.70;1.70;;;9.30;99.90;;;;;;5060705;28;20100;-69
2022/12/21 03:56:32;;;;;;;5.15;1.90;;;9.30;99.90;;;;;;5060624;28;20062;-69
2022/12/21 03:59:00;;;;;;;7.95;2.20;;;9.30;99.90;;;;;;5042816;28;20050;-69
2022/12/21 04:02:03;;;;;;;2.80;1.67;;;9.30;99.90;;;;;;5060748;28;20032;-69
2022/12/21 04:04:46;;;;;;;4.45;1.60;;;9.30;99.90;;;;;;5042626;28;20029;-69
2022/12/21 04:07:13;;;;;;;;;;;9.40;99.90;;;;;;5060947;28;20033;-69
2022/12/21 04:09:39;;;;;;;3.20;1.40;;;9.40;99.90;;;;;;5042583;28;20315;-69
2022/12/21 04:14:50;;;;;;;7.40;1.63;;;9.40;99.90;;;;;;5060425;28;20031;-69
2022/12/21 04:17:16;;;;;;;4.25;1.52;;;9.50;99.90;;;;;;5060264;28;20491;-69
2022/12/21 04:20:02;;;;;;;4.22;1.52;;;9.40;99.90;;;;;;5060413;28;20046;-69
2022/12/21 04:28:09;;;;;;;3.15;1.38;;;9.50;99.90;;;;;;5060611;28;20063;-69
2022/12/21 04:30:43;;;;;;;5.93;1.30;;;9.50;99.90;;;;;;5042192;28;20474;-69
2022/12/21 04:33:11;;;;;;;3.72;1.17;;;9.60;99.90;;;;;;5042082;28;20021;-69
2022/12/21 04:37:30;;;;;;;2.38;1.17;;;9.60;99.90;;;;;;5060208;28;20029;-70
2022/12/21 04:38:27;;;;;;;4.00;1.50;;;9.60;99.90;;;;;;5059672;28;20493;-69
2022/12/21 04:40:53;;;;;;;3.30;1.10;;;9.60;99.90;;;;;;5042121;28;20564;-69
2022/12/21 04:43:20;;;;;;;2.95;1.38;;;9.60;99.90;;;;;;5058820;28;20029;-69
2022/12/21 04:45:46;;;;;;;3.58;1.20;;;9.60;99.90;;;;;;5060039;28;20036;-69
2022/12/21 04:48:12;;;;;;;3.47;1.30;;;9.60;99.90;;;;;;5059661;28;20025;-69
2022/12/21 04:50:38;;;;;;;5.00;1.63;;;9.60;99.90;;;;;;5059962;28;20113;-70
2022/12/21 04:53:04;;;;;;;3.55;1.83;;;9.60;99.90;;;;;;5059439;28;20507;-69
2022/12/21 04:55:29;;;;;;;4.78;1.52;;;9.60;99.90;;;;;;5059801;28;20021;-69
2022/12/21 04:57:55;;;;;;;3.90;1.58;;;9.60;99.90;;;;;;5059537;28;20489;-69
2022/12/21 05:00:21;;;;;;;4.53;1.75;;;9.60;99.90;;;;;;5059702;28;20029;-69
2022/12/21 05:02:46;;;;;;;4.47;1.60;;;9.60;99.90;;;;;;5059465;28;20028;-69
2022/12/21 05:05:12;;;;;;;3.38;1.50;;;9.60;99.90;;;;;;5059693;28;20025;-69
2022/12/21 05:07:38;;;;;;;2.70;1.50;;;9.60;99.90;;;;;;5059223;28;20017;-70
2022/12/21 05:10:04;;;;;;;3.60;1.40;;;9.60;99.90;;;;;;5059416;28;20076;-70
2022/12/21 05:12:29;;;;;;;3.35;1.40;;;9.60;99.90;;;;;;5059288;28;20029;-70
2022/12/21 05:14:55;;;;;;;3.70;1.23;;;9.60;99.90;;;;;;5059485;28;20029;-69
2022/12/21 05:17:20;;;;;;;5.32;1.60;;;9.60;99.90;;;;;;5059122;28;20021;-69
2022/12/21 05:19:46;;;;;;;2.28;1.38;;;9.60;99.90;;;;;;5041452;28;20565;-69
2022/12/21 05:22:16;;;;;;;2.92;1.30;;;9.60;99.90;;;;;;5058907;28;20066;-69
2022/12/21 05:24:43;;;;;;;3.40;1.20;;;9.60;99.90;;;;;;5059321;28;20076;-69
2022/12/21 05:27:09;;;;;;;2.58;1.05;;;9.60;99.90;;;;;;5058956;28;20078;-70
2022/12/21 05:29:35;;;;;;;3.47;1.35;;;9.60;99.90;;;;;;5041279;28;20067;-69
2022/12/21 05:32:00;;;;;;;6.67;2.50;;;9.60;99.90;;;;;;5057244;28;20413;-69
2022/12/21 05:34:26;;;;;;;5.03;1.65;;;9.60;99.90;;;;;;5041222;28;20392;-69
2022/12/21 05:36:52;;;;;;;3.08;1.50;;;9.60;99.90;;;;;;5058774;28;20032;-69
2022/12/21 05:39:17;;;;;;;;;;;9.70;99.90;;;;;;5041325;28;20018;-69
2022/12/21 05:41:43;;;;;;;2.58;0.82;;;9.70;99.90;;;;;;5058782;28;19927;-69
2022/12/21 05:44:09;;;;;;;5.20;2.00;;;9.70;99.90;;;;;;5057878;28;20393;-69
2022/12/21 05:46:35;;;;;;;6.20;1.83;;;9.70;99.90;;;;;;5040580;28;20061;-69
2022/12/21 05:49:01;;;;;;;7.22;1.55;;;9.70;99.90;;;;;;5058873;28;20028;-69
2022/12/21 05:51:27;;;;;;;2.05;1.13;;;9.70;99.90;;;;;;5058508;28;20043;-69
2022/12/21 05:53:53;;;;;;;8.30;2.20;;;9.80;99.90;;;;;;5057431;28;20397;-69
2022/12/21 05:56:19;;;;;;;4.40;1.55;;;9.80;99.90;;;;;;5040292;28;20151;-70
2022/12/21 05:58:45;;;;;;;1.75;0.90;;;9.80;99.90;;;;;;5058709;28;20053;-69
2022/12/21 06:01:11;;;;;;;2.72;1.08;;;9.80;99.90;;;;;;5058415;28;20547;-70
2022/12/21 06:03:38;;;;;;;1.20;0.77;;;9.80;99.90;;;;;;5058581;28;20124;-69
2022/12/21 06:06:10;;;;;;;;;;;9.80;99.90;;;;;;5058670;28;20025;-69
2022/12/21 06:08:37;;;;;;;2.22;1.13;;;9.80;99.90;;;;;;5058247;28;19909;-69
2022/12/21 06:11:14;;;;;;;1.10;0.80;;;9.80;99.90;;;;;;5057902;28;20045;-69
2022/12/21 06:13:40;;;;;;;3.20;1.20;;;9.80;99.90;;;;;;5040274;28;20025;-70
2022/12/21 06:16:11;;;;;;;1.42;0.80;;;9.80;99.90;;;;;;5058419;28;20024;-69
2022/12/21 06:18:38;;;;;;;3.15;1.00;;;9.90;99.90;;;;;;5058067;28;20029;-69
2022/12/21 06:21:05;;;;;;;2.10;0.80;;;9.80;99.90;;;;;;5058183;28;20021;-69
2022/12/21 06:23:31;;;;;;;2.70;0.82;;;9.90;99.90;;;;;;5057518;28;20106;-69
2022/12/21 06:26:01;;;;;;;3.40;1.23;;;9.90;99.90;;;;;;5058117;28;20095;-69
2022/12/21 06:28:28;;;;;;;3.08;1.20;;;9.80;99.90;;;;;;5040022;28;20033;-69
2022/12/21 06:30:54;;;;;;;2.08;1.27;;;9.80;99.90;;;;;;5039763;28;20025;-69
2022/12/21 06:33:22;;;;;;;2.72;1.38;;;9.80;99.90;;;;;;5057834;28;20024;-69
2022/12/21 06:35:54;;;;;;;2.65;1.48;;;9.80;99.90;;;;;;5057790;28;20552;-70
2022/12/21 06:38:20;;;;;;;2.78;1.30;;;9.80;99.90;;;;;;5057628;28;20082;-69
2022/12/21 06:40:56;;;;;;;4.78;2.00;;;9.80;99.90;;;;;;5057817;28;20033;-70
2022/12/21 06:43:22;;;;;;;3.45;1.50;;;9.80;99.90;;;;;;5057639;28;20036;-70
2022/12/21 06:45:56;;;;;;;3.78;2.25;;;9.80;99.90;;;;;;5057707;28;20496;-69
2022/12/21 06:48:23;;;;;;;5.05;2.63;;;9.80;99.90;;;;;;5057398;28;20033;-69
2022/12/21 06:50:57;;;;;;;5.80;2.55;;;9.80;99.90;;;;;;5057791;28;20029;-69
2022/12/21 06:53:24;;;;;;;5.82;2.72;;;9.80;99.90;;;;;;5039277;28;20052;-69
2022/12/21 06:55:57;;;;;;;3.92;2.90;;;9.80;99.90;;;;;;5057406;28;20013;-69
2022/12/21 06:58:22;;;;;;;5.38;3.08;;;9.80;99.90;;;;;;5057672;28;20155;-69
2022/12/21 07:00:49;;;;;;;5.43;3.00;;;9.80;99.90;;;;;;5057383;28;20033;-70
2022/12/21 07:03:14;;;;;;;4.18;3.10;;;9.90;99.90;;;;;;5057320;28;20485;-69
2022/12/21 07:05:40;;;;;;;5.07;3.25;;;9.90;99.90;;;;;;5057179;28;20083;-70
2022/12/21 07:08:06;;;;;;;3.80;3.30;;;9.90;99.90;;;;;;5056746;28;20059;-70
2022/12/21 07:10:31;;;;;;;5.50;3.92;;;9.90;99.90;;;;;;5057035;28;20053;-70
2022/12/21 07:12:57;;;;;;;4.47;3.08;;;9.90;99.90;;;;;;5057362;28;20473;-69
2022/12/21 07:15:23;;;;;;;3.95;2.90;;;9.90;99.90;;;;;;5057290;28;20020;-69
2022/12/21 07:17:48;;;;;;;5.03;2.90;;;10.00;99.90;;;;;;5056761;28;20051;-70
2022/12/21 07:20:14;;;;;;;4.57;3.22;;;10.00;99.90;;;;;;5057072;28;20032;-69
2022/12/21 07:22:40;;;;;;;6.00;3.13;;;10.00;99.90;;;;;;5038899;28;20036;-70
2022/12/21 07:25:06;;;;;;;6.63;3.28;;;10.00;99.90;;;;;;5057184;28;20123;-70
2022/12/21 07:27:31;;;;;;;6.32;3.22;;;10.00;99.90;;;;;;5039277;28;20044;-69
2022/12/21 07:29:57;;;;;;;6.13;2.60;;;10.10;99.90;;;;;;5038899;28;20025;-69
2022/12/21 07:32:23;;;;;;;5.57;2.97;;;10.10;99.90;;;;;;5056872;28;20505;-69
2022/12/21 07:34:48;;;;;;;5.80;2.83;;;10.10;99.90;;;;;;5057910;28;20021;-70
2022/12/21 07:37:14;;;;;;;7.13;2.88;;;10.10;99.90;;;;;;5060178;28;20032;-70
2022/12/21 07:39:39;;;;;;;4.57;2.95;;;10.10;99.90;;;;;;5057257;28;20091;-70
2022/12/21 07:42:05;;;;;;;3.63;2.63;;;10.20;99.90;;;;;;5057002;28;20029;-69
2022/12/21 07:44:31;;;;;;;3.67;2.55;;;10.20;99.90;;;;;;5056845;28;20037;-69
2022/12/21 07:46:56;;;;;;;4.15;2.58;;;10.20;99.90;;;;;;5038858;28;20040;-69
2022/12/21 07:49:22;;;;;;;4.22;2.47;;;10.20;99.90;;;;;;5038945;28;20037;-69
2022/12/21 07:51:47;;;;;;;5.70;2.47;;;10.20;99.90;;;;;;5055310;28;20536;-68
2022/12/21 07:54:14;;;;;;;4.28;1.90;;;10.20;99.90;;;;;;5054874;28;20103;-69
2022/12/21 07:56:40;;;;;;;3.20;1.70;;;10.30;99.90;;;;;;5056580;28;20033;-69
2022/12/21 07:59:05;;;;;;;4.50;1.58;;;10.30;99.90;;;;;;5055280;28;20029;-69
2022/12/21 08:01:31;;;;;;;2.65;1.40;;;10.30;99.90;;;;;;5054899;28;20029;-69
2022/12/21 08:04:00;;;;;;;2.17;1.27;;;10.30;99.90;;;;;;5056672;28;20021;-69
2022/12/21 08:06:26;;;;;;;7.63;1.98;;;10.40;99.90;;;;;;5056747;28;20029;-69
2022/12/21 08:08:52;;;;;;;8.88;2.13;;;10.40;99.90;;;;;;5038327;28;20029;-69
2022/12/21 08:11:19;;;;;;;4.88;1.63;;;10.40;99.90;;;;;;5056309;28;20453;-69
2022/12/21 08:13:46;;;;;;;3.83;1.50;;;10.40;99.90;;;;;;5056661;28;20029;-68
2022/12/21 08:16:15;;;;;;;2.80;1.10;;;10.40;99.90;;;;;;5056740;28;20025;-69
2022/12/21 08:18:40;;;;;;;4.00;1.40;;;10.50;99.90;;;;;;5040887;28;20021;-69
2022/12/21 08:21:06;;;;;;;2.05;1.05;;;10.50;99.90;;;;;;5060052;28;20040;-68
2022/12/21 08:23:32;;;;;;;4.38;1.33;;;10.50;99.90;;;;;;5060037;28;20028;-69
2022/12/21 08:26:06;;;;;;;3.03;1.05;;;10.50;99.90;;;;;;5042446;28;20033;-68
2022/12/21 08:28:32;;;;;;;3.92;1.08;;;10.50;99.90;;;;;;5042088;28;20040;-69
2022/12/21 08:31:04;;;;;;;3.65;1.05;;;10.50;99.90;;;;;;5042051;28;20560;-69
2022/12/21 08:33:30;;;;;;;2.40;0.75;;;10.50;99.90;;;;;;5059917;28;20043;-68
2022/12/21 08:35:56;;;;;;;2.53;0.80;;;10.50;99.90;;;;;;5059984;28;20021;-69
2022/12/21 08:38:22;;;;;;;2.33;1.10;;;10.60;99.90;;;;;;5059810;28;20082;-68
2022/12/21 08:40:48;;;;;;;2.97;1.10;;;10.60;99.90;;;;;;5042019;28;20025;-69
2022/12/21 08:43:13;;;;;;;3.00;1.13;;;10.60;99.90;;;;;;5059682;28;20136;-69
2022/12/21 08:45:39;;;;;;;2.55;1.10;;;10.60;99.90;;;;;;5059794;28;20104;-69
2022/12/21 08:48:05;;;;;;;3.55;1.42;;;10.60;99.90;;;;;;5041713;28;20070;-69
2022/12/21 08:50:31;;;;;;;3.00;1.17;;;10.70;99.90;;;;;;5041848;28;20029;-69
2022/12/21 08:52:57;;;;;;;1.25;1.13;;;10.70;99.90;;;;;;5059453;28;20021;-69
2022/12/21 08:55:22;;;;;;;1.88;1.10;;;10.70;99.90;;;;;;5059961;28;20033;-69
2022/12/21 08:57:48;;;;;;;2.42;1.30;;;10.70;99.90;;;;;;5059336;28;20021;-68
2022/12/21 09:00:14;;;;;;;3.78;1.38;;;10.70;99.90;;;;;;5059730;28;20473;-69
2022/12/21 09:02:40;;;;;;;2.28;1.20;;;10.70;99.90;;;;;;5059312;28;20511;-68
2022/12/21 09:05:06;;;;;;;2.72;1.42;;;10.80;99.90;;;;;;5059612;28;20111;-68
2022/12/21 09:07:32;;;;;;;2.85;1.17;;;10.80;99.90;;;;;;5041283;28;20477;-69
2022/12/21 09:09:57;;;;;;;2.30;1.00;;;10.80;99.90;;;;;;5059417;28;20123;-69
2022/12/21 09:12:23;;;;;;;3.20;1.15;;;10.80;99.90;;;;;;5059282;28;20114;-69
2022/12/21 09:14:49;;;;;;;4.03;1.50;;;10.80;99.90;;;;;;5059303;28;20029;-69
2022/12/21 09:17:14;;;;;;;2.50;0.82;;;10.80;99.90;;;;;;5059120;28;20024;-69
2022/12/21 09:19:40;;;;;;;1.92;0.85;;;10.90;99.90;;;;;;5059788;28;20020;-69
2022/12/21 09:22:05;;;;;;;1.77;1.02;;;10.90;99.90;;;;;;5058961;28;20059;-69
2022/12/21 09:24:31;;;;;;;3.20;1.30;;;10.90;99.90;;;;;;5059304;28;20554;-69
2022/12/21 09:26:57;;;;;;;3.22;1.20;;;10.90;99.90;;;;;;5041207;28;20040;-69
2022/12/21 09:29:23;;;;;;;1.92;1.15;;;10.90;99.90;;;;;;5040674;28;20397;-69
2022/12/21 09:31:50;;;;;;;2.08;0.88;;;11.00;99.90;;;;;;5058784;28;20036;-69
2022/12/21 09:34:17;;;;;;;1.27;1.05;;;11.00;99.90;;;;;;5059025;28;20020;-68
2022/12/21 09:36:43;;;;;;;2.85;0.98;;;11.00;99.90;;;;;;5058587;28;20020;-69
2022/12/21 09:39:08;;;;;;;4.35;1.83;;;11.00;99.90;;;;;;5058980;28;20032;-69
2022/12/21 09:41:45;;;;;;;1.90;0.93;;;11.10;99.90;;;;;;5058876;28;20509;-68
2022/12/21 09:45:01;;;;;;;2.65;1.02;;;11.10;99.90;;;;;;5059130;28;20104;-68
2022/12/21 09:47:42;;;;;;;1.98;1.25;;;11.10;99.90;;;;;;4987289;28;20046;-69
2022/12/21 09:50:16;;;;;;;3.28;1.20;;;11.10;99.90;;;;;;5040852;28;20432;-69
2022/12/21 09:52:45;;;;;;;1.63;1.08;;;11.20;99.90;;;;;;5058445;28;20028;-69
2022/12/21 09:55:15;;;;;;;3.25;1.02;;;11.20;99.90;;;;;;5058725;28;20076;-69
2022/12/21 09:57:42;;;;;;;1.73;1.00;;;11.20;99.90;;;;;;5058408;28;20090;-69
2022/12/21 10:00:24;;;;;;;3.83;1.00;;;11.30;99.90;;;;;;5058655;28;20022;-69
2022/12/21 10:02:57;;;;;;;2.55;0.95;;;11.30;99.90;;;;;;5058276;28;20033;-69
2022/12/21 10:05:47;;;;;;;1.73;0.82;;;11.30;99.90;;;;;;5040514;28;20090;-69
2022/12/21 10:08:50;;;;;;;4.07;0.90;;;11.30;99.90;;;;;;5040188;28;20037;-69
2022/12/21 10:11:27;;;;;;;1.80;1.00;;;11.40;99.90;;;;;;5058133;28;20041;-68
2022/12/21 10:14:03;;;;;;;1.63;0.80;;;11.40;99.90;;;;;;5058212;28;20036;-68
2022/12/21 10:16:33;;;;;;;1.65;0.70;;;11.40;99.90;;;;;;5058207;28;20389;-67
2022/12/21 10:19:21;;;;;;;2.13;0.77;;;11.40;99.90;;;;;;5058108;28;20052;-68
2022/12/21 10:22:21;;;;;;;1.92;1.02;;;11.50;99.90;;;;;;5057906;28;20021;-69
2022/12/21 10:24:52;;;;;;;1.88;1.00;;;11.40;99.90;;;;;;5058204;28;20029;-69
2022/12/21 10:27:30;;;;;;;0.95;0.73;;;11.50;99.90;;;;;;5058161;28;20549;-68
2022/12/21 10:29:58;;;;;;;1.40;0.80;;;11.50;99.90;;;;;;5057993;28;20029;-69
2022/12/21 10:32:34;;;;;;;2.85;1.00;;;11.50;99.90;;;;;;5057704;28;20068;-69
2022/12/21 10:35:34;;;;;;;1.75;0.90;;;11.50;99.90;;;;;;5057867;28;20045;-69
2022/12/21 10:38:01;;;;;;;1.60;1.00;;;11.60;99.90;;;;;;5041411;28;20036;-69
2022/12/21 10:40:31;;;;;;;3.60;1.05;;;11.60;99.90;;;;;;5057655;28;20064;-69
2022/12/21 10:42:58;;;;;;;1.40;0.95;;;11.60;99.90;;;;;;5057278;28;20496;-69
2022/12/21 10:45:25;;;;;;;1.75;0.98;;;11.60;99.90;;;;;;5057607;28;20032;-69
2022/12/21 10:47:51;;;;;;;1.58;1.20;;;11.70;99.90;;;;;;5057341;28;20075;-69
2022/12/21 10:50:18;;;;;;;1.58;0.90;;;11.70;99.90;;;;;;5057747;28;20103;-69
2022/12/21 10:52:47;;;;;;;0.82;0.73;;;11.70;99.90;;;;;;5039341;28;20497;-68
2022/12/21 10:55:18;;;;;;;2.17;1.00;;;11.70;99.90;;;;;;5039638;28;20032;-69
2022/12/21 10:57:54;;;;;;;3.08;1.00;;;11.70;99.90;;;;;;5057331;28;20025;-69
2022/12/21 11:00:35;;;;;;;1.35;0.95;;;11.80;99.90;;;;;;5057625;28;20021;-69
2022/12/21 11:03:19;;;;;;;1.75;0.90;;;11.90;99.90;;;;;;5044598;28;20021;-69
2022/12/21 11:05:45;;;;;;;2.45;0.90;;;11.90;99.90;;;;;;5057247;28;20037;-69
2022/12/21 11:08:13;;;;;;;1.50;0.80;;;11.90;99.90;;;;;;5057262;28;20021;-69
2022/12/21 11:10:48;;;;;;;1.40;1.00;;;12.00;99.90;;;;;;5057045;28;20049;-68
2022/12/21 11:13:15;;;;;;;3.42;0.80;;;12.00;99.90;;;;;;5057341;28;20048;-69
2022/12/21 11:16:01;;;;;;;0.90;0.65;;;12.10;99.90;;;;;;5057189;28;20051;-69
2022/12/21 11:18:35;;;;;;;1.95;0.85;;;12.20;99.90;;;;;;5057377;28;20025;-69
2022/12/21 11:21:04;;;;;;;2.95;0.80;;;12.30;99.90;;;;;;5057214;28;20509;-68
2022/12/21 11:23:31;;;;;;;2.00;0.90;;;12.30;99.90;;;;;;5056848;28;20497;-69
2022/12/21 11:25:57;;;;;;;2.65;0.70;;;12.40;99.90;;;;;;5039248;28;20036;-69
2022/12/21 11:28:23;;;;;;;2.55;0.68;;;12.40;99.90;;;;;;5057006;28;20028;-69
2022/12/21 11:31:15;;;;;;;3.42;0.90;;;12.40;99.90;;;;;;5057124;28;20029;-69
2022/12/21 11:33:45;;;;;;;1.65;0.90;;;12.30;99.90;;;;;;5036399;28;20164;-69
2022/12/21 11:36:14;;;;;;;6.50;1.48;;;12.40;99.90;;;;;;5056028;28;20377;-69
2022/12/21 11:38:41;;;;;;;5.45;1.65;;;12.40;99.90;;;;;;5042838;28;20373;-69
2022/12/21 11:41:27;;;;;;;4.40;1.20;;;12.40;99.90;;;;;;5056970;28;20029;-69
2022/12/21 11:43:54;;;;;;;4.15;1.10;;;12.50;99.90;;;;;;5039084;28;20032;-69
2022/12/21 11:46:45;;;;;;;5.50;1.25;;;12.50;99.90;;;;;;5056815;28;20032;-68
2022/12/21 11:49:19;;;;;;;6.13;1.45;;;12.50;99.90;;;;;;5057095;28;20025;-69
2022/12/21 11:51:44;;;;;;;;;;;12.50;99.90;;;;;;5057358;28;20052;-69
2022/12/21 11:54:27;;;;;;;4.40;1.20;;;12.50;99.90;;;;;;5060262;28;19904;-69
2022/12/21 11:56:59;;;;;;;3.17;0.85;;;12.50;99.90;;;;;;5061017;28;20421;-69
2022/12/21 11:59:43;;;;;;;5.97;1.30;;;12.60;99.90;;;;;;5060839;28;20473;-69
2022/12/21 12:02:23;;;;;;;3.10;1.10;;;12.70;99.90;;;;;;5060756;28;20033;-69
2022/12/21 12:04:55;;;;;;;5.55;1.02;;;12.70;99.90;;;;;;5042825;28;20032;-69
2022/12/21 12:07:32;;;;;;;3.55;1.08;;;12.70;99.90;;;;;;5060463;28;20021;-69
2022/12/21 12:10:07;;;;;;;2.78;0.85;;;12.80;99.90;;;;;;5060627;28;20049;-69
2022/12/21 12:12:44;;;;;;;3.17;1.02;;;12.80;99.90;;;;;;5060559;28;20037;-69
2022/12/21 12:15:26;;;;;;;4.20;1.35;;;12.90;99.90;;;;;;5042861;28;20049;-69
2022/12/21 12:18:20;;;;;;;3.38;0.80;;;12.90;99.90;;;;;;5042550;28;20032;-69
2022/12/21 12:20:51;;;;;;;3.90;1.00;;;12.90;99.90;;;;;;5060563;28;20032;-69
2022/12/21 12:23:40;;;;;;;2.60;0.90;;;12.90;99.90;;;;;;5060169;28;20036;-69
2022/12/21 12:26:35;;;;;;;2.22;0.60;;;12.90;99.90;;;;;;5060605;28;20055;-69
2022/12/21 12:29:19;;;;;;;2.45;1.00;;;12.90;99.90;;;;;;5060437;28;20021;-69
2022/12/21 12:32:00;;;;;;;4.03;0.85;;;13.00;99.90;;;;;;5060012;28;20025;-69
2022/12/21 12:34:51;;;;;;;2.42;0.85;;;13.00;99.90;;;;;;5042265;28;20029;-69
2022/12/21 12:37:29;;;;;;;2.38;0.77;;;13.00;99.90;;;;;;5049819;28;20112;-69
2022/12/21 12:40:23;;;;;;;3.25;0.80;;;13.00;99.90;;;;;;5060008;28;20155;-69
2022/12/21 12:43:14;;;;;;;3.13;1.05;;;13.10;99.90;;;;;;5059909;28;20389;-69
2022/12/21 12:45:46;;;;;;;4.35;0.85;;;13.20;99.90;;;;;;5060004;28;20068;-69
2022/12/21 12:48:24;;;;;;;4.78;1.00;;;13.20;99.90;;;;;;5059686;28;20021;-68
2022/12/21 12:51:00;;;;;;;3.95;0.90;;;13.30;99.90;;;;;;5041929;28;20033;-69
2022/12/21 12:53:52;;;;;;;4.05;1.10;;;13.30;99.90;;;;;;5059786;28;20061;-69
2022/12/21 12:56:36;;;;;;;6.05;1.30;;;13.30;99.90;;;;;;5041741;28;20052;-68
2022/12/21 12:59:26;;;;;;;7.38;1.40;;;13.30;99.90;;;;;;5059877;28;20025;-69
2022/12/21 13:02:08;;;;;;;4.20;1.30;;;13.30;99.90;;;;;;5059843;28;20477;-69
2022/12/21 13:05:08;;;;;;;5.15;1.23;;;13.30;99.90;;;;;;5040674;28;20033;-69
2022/12/21 13:07:46;;;;;;;7.40;1.55;;;13.30;99.90;;;;;;5044746;28;20075;-69
2022/12/21 13:10:34;;;;;;;8.30;1.30;;;13.30;99.90;;;;;;5059758;28;20077;-69
2022/12/21 13:13:02;;;;;;;8.02;1.67;;;13.30;99.90;;;;;;5059525;28;20033;-69
2022/12/21 13:15:34;;;;;;;5.10;1.48;;;13.30;99.90;;;;;;5059242;28;20051;-69
2022/12/21 13:18:14;;;;;;;6.38;1.30;;;13.30;99.90;;;;;;5041283;28;20025;-69
2022/12/21 13:20:42;;;;;;;6.00;1.30;;;13.30;99.90;;;;;;5041225;28;20036;-69
2022/12/21 13:23:23;;;;;;;6.43;1.52;;;13.20;99.90;;;;;;5041253;28;20495;-69
2022/12/21 13:26:08;;;;;;;3.53;1.15;;;13.20;99.90;;;;;;5059396;28;20028;-69